Time;durP1;ratioP1;P1;durP2;ratioP2;P2;SDS_P1;SDS_P2;PMS_P1;PMS_P2;Temp;Humidity;BMP_temperature;BMP_pressure;BME280_temperature;BME280_humidity;BME280_pressure;Samples;Min_cycle;Max_cycle;Signal;HPM_P1;HPM_P2
2022/07/03 00:01:23;;;;;;;2.75;1.90;;;24.40;47.60;;;;;;4935283;29;20032;-48
2022/07/03 00:03:49;;;;;;;2.55;1.58;;;24.40;47.60;;;;;;4935519;29;20466;-47
2022/07/03 00:06:14;;;;;;;2.72;1.75;;;24.40;47.50;;;;;;4936331;29;20074;-48
2022/07/03 00:08:40;;;;;;;3.03;1.92;;;24.40;47.60;;;;;;4935989;29;20478;-48
2022/07/03 00:11:06;;;;;;;2.83;1.70;;;24.40;47.60;;;;;;4935985;29;20039;-48
2022/07/03 00:13:32;;;;;;;2.72;1.83;;;24.40;47.60;;;;;;4935533;29;20485;-48
2022/07/03 00:15:57;;;;;;;2.72;1.90;;;24.40;47.50;;;;;;4935621;29;20047;-48
2022/07/03 00:18:23;;;;;;;2.88;1.60;;;24.30;47.50;;;;;;4935734;29;20541;-48
2022/07/03 00:20:58;;;;;;;2.78;1.70;;;24.40;47.40;;;;;;4934958;28;20023;-48
2022/07/03 00:23:24;;;;;;;2.22;1.40;;;24.40;47.40;;;;;;4934788;29;20111;-47
2022/07/03 00:25:51;;;;;;;2.95;1.50;;;24.40;47.40;;;;;;4935753;29;20025;-48
2022/07/03 00:28:19;;;;;;;3.08;2.00;;;24.40;47.30;;;;;;4934112;29;20028;-48
2022/07/03 00:30:48;;;;;;;2.53;1.40;;;24.40;47.30;;;;;;4935814;29;20042;-48
2022/07/03 00:33:14;;;;;;;2.50;1.60;;;24.40;47.20;;;;;;4932415;29;20535;-47
2022/07/03 00:35:43;;;;;;;2.75;1.55;;;24.40;47.30;;;;;;4935912;29;20028;-48
2022/07/03 00:38:10;;;;;;;3.13;1.77;;;24.40;47.30;;;;;;4936672;29;20019;-47
2022/07/03 00:40:37;;;;;;;3.20;1.90;;;24.40;47.20;;;;;;4934529;29;20159;-47
2022/07/03 00:43:04;;;;;;;2.40;1.60;;;24.40;47.20;;;;;;4935737;29;20020;-48
2022/07/03 00:45:34;;;;;;;2.55;1.50;;;24.40;47.20;;;;;;4935698;29;20119;-48
2022/07/03 00:48:00;;;;;;;2.78;1.80;;;24.40;47.10;;;;;;4935326;28;20030;-48
2022/07/03 00:50:34;;;;;;;2.70;1.60;;;24.40;47.10;;;;;;4935503;28;20626;-47
2022/07/03 00:53:02;;;;;;;3.05;1.70;;;24.40;47.10;;;;;;4934176;29;20300;-47
2022/07/03 00:55:28;;;;;;;4.22;1.85;;;24.40;47.10;;;;;;4935603;29;20507;-48
2022/07/03 00:57:56;;;;;;;3.60;1.75;;;24.40;47.10;;;;;;4934539;29;20752;-48
2022/07/03 01:00:22;;;;;;;2.65;1.65;;;24.40;47.10;;;;;;4935670;29;20034;-48
2022/07/03 01:02:51;;;;;;;2.63;1.67;;;24.40;47.00;;;;;;4934082;29;20476;-47
2022/07/03 01:05:36;;;;;;;2.67;1.40;;;24.40;47.00;;;;;;4934998;29;20042;-48
2022/07/03 01:08:08;;;;;;;2.38;1.58;;;24.40;47.00;;;;;;4932852;29;20011;-47
2022/07/03 01:11:02;;;;;;;2.55;1.45;;;24.40;47.00;;;;;;4933671;29;20075;-47
2022/07/03 01:13:55;;;;;;;3.38;1.80;;;24.40;47.00;;;;;;4934455;29;20019;-47
2022/07/03 01:16:37;;;;;;;2.75;1.63;;;24.30;47.00;;;;;;4933844;29;20020;-47
2022/07/03 01:19:17;;;;;;;2.30;1.60;;;24.30;46.90;;;;;;4935065;29;20107;-47
2022/07/03 01:21:52;;;;;;;4.03;1.92;;;24.30;46.90;;;;;;4933953;29;20035;-48
2022/07/03 01:24:39;;;;;;;3.47;1.48;;;24.30;47.00;;;;;;4933763;29;20095;-47
2022/07/03 01:27:11;;;;;;;2.90;2.05;;;24.30;46.90;;;;;;4933539;29;20099;-47
2022/07/03 01:29:57;;;;;;;2.75;1.65;;;24.30;46.90;;;;;;4931808;29;20039;-48
2022/07/03 01:32:26;;;;;;;2.17;1.23;;;24.30;46.90;;;;;;4934699;28;20050;-48
2022/07/03 01:34:53;;;;;;;2.70;1.75;;;24.30;46.80;;;;;;4934929;28;20544;-47
2022/07/03 01:37:22;;;;;;;3.13;1.83;;;24.30;46.80;;;;;;4933108;29;20032;-47
2022/07/03 01:39:52;;;;;;;2.78;1.60;;;24.30;46.80;;;;;;4934980;29;20047;-50
2022/07/03 01:42:19;;;;;;;2.55;1.60;;;24.30;47.50;;;;;;4933652;29;20066;-47
2022/07/03 01:44:50;;;;;;;2.50;1.55;;;24.30;46.80;;;;;;4934723;29;20027;-47
2022/07/03 01:47:18;;;;;;;3.40;1.63;;;24.30;46.90;;;;;;4933376;29;20032;-48
2022/07/03 01:49:44;;;;;;;2.70;1.70;;;24.30;46.80;;;;;;4934452;29;20180;-48
2022/07/03 01:52:11;;;;;;;2.83;1.70;;;24.30;46.80;;;;;;4934690;29;20031;-47
2022/07/03 01:54:44;;;;;;;3.42;1.38;;;24.30;46.80;;;;;;4935171;28;20639;-48
2022/07/03 01:57:10;;;;;;;3.65;1.70;;;24.30;46.70;;;;;;4933311;29;20023;-48
2022/07/03 01:59:36;;;;;;;5.40;2.00;;;24.30;46.70;;;;;;4933956;29;20030;-48
2022/07/03 02:02:24;;;;;;;3.60;1.92;;;24.20;46.60;;;;;;4934738;29;20032;-50
2022/07/03 02:04:56;;;;;;;3.10;2.00;;;24.20;46.70;;;;;;4935199;28;20511;-48
2022/07/03 02:07:41;;;;;;;3.40;1.73;;;24.20;46.70;;;;;;4933715;29;20799;-47
2022/07/03 02:10:10;;;;;;;2.70;1.70;;;24.20;46.70;;;;;;4934371;29;20550;-48
2022/07/03 02:12:45;;;;;;;2.75;1.70;;;24.20;46.70;;;;;;4932684;29;20042;-47
2022/07/03 02:15:13;;;;;;;3.10;1.80;;;24.20;46.60;;;;;;4934577;29;20117;-48
2022/07/03 02:17:44;;;;;;;2.65;1.63;;;24.20;46.60;;;;;;4935083;28;20027;-50
2022/07/03 02:20:10;;;;;;;3.00;2.00;;;24.20;46.70;;;;;;4934190;28;20024;-50
2022/07/03 02:22:40;;;;;;;2.75;1.73;;;24.20;46.60;;;;;;4934389;29;20151;-49
2022/07/03 02:25:33;;;;;;;2.95;1.80;;;24.20;46.60;;;;;;4933041;29;20030;-51
2022/07/03 02:28:34;;;;;;;2.57;1.67;;;24.20;46.70;;;;;;4934761;28;20078;-51
2022/07/03 02:31:05;;;;;;;2.53;1.58;;;24.20;46.60;;;;;;4933602;29;20032;-48
2022/07/03 02:33:32;;;;;;;3.97;1.70;;;24.20;46.60;;;;;;4933256;29;20024;-48
2022/07/03 02:35:58;;;;;;;3.30;1.85;;;24.20;46.60;;;;;;4934242;29;20524;-48
2022/07/03 02:38:26;;;;;;;3.72;1.92;;;24.10;46.60;;;;;;4933517;29;20574;-48
2022/07/03 02:41:08;;;;;;;2.70;1.80;;;24.10;46.60;;;;;;4934654;28;20028;-48
2022/07/03 02:43:46;;;;;;;2.47;1.60;;;24.10;47.30;;;;;;4935252;29;20019;-47
2022/07/03 02:49:19;;;;;;;2.80;1.58;;;24.10;46.60;;;;;;4937207;29;20151;-48
2022/07/03 02:52:03;;;;;;;2.78;1.80;;;24.10;46.60;;;;;;4936221;29;20171;-47
2022/07/03 02:54:38;;;;;;;2.67;1.70;;;24.10;46.60;;;;;;4938080;29;20119;-47
2022/07/03 02:57:07;;;;;;;2.55;1.60;;;24.10;46.60;;;;;;4937628;29;20650;-47
2022/07/03 02:59:48;;;;;;;2.78;1.85;;;24.10;46.70;;;;;;4937194;29;20039;-48
2022/07/03 03:02:22;;;;;;;3.47;1.80;;;24.00;46.60;;;;;;4937798;29;20027;-47
2022/07/03 03:05:02;;;;;;;2.20;1.52;;;24.00;46.60;;;;;;4937266;28;20043;-47
2022/07/03 03:07:43;;;;;;;2.38;1.52;;;24.10;46.70;;;;;;4937826;28;20012;-47
2022/07/03 03:10:12;;;;;;;2.75;1.70;;;24.00;46.60;;;;;;4938269;29;20679;-47
2022/07/03 03:12:40;;;;;;;2.67;1.65;;;24.10;46.70;;;;;;4937392;29;20027;-49
2022/07/03 03:15:11;;;;;;;2.88;1.77;;;24.00;46.60;;;;;;4937168;29;20683;-53
2022/07/03 03:17:43;;;;;;;3.20;2.03;;;24.00;46.60;;;;;;4936254;29;20102;-48
2022/07/03 03:20:15;;;;;;;2.90;1.90;;;24.00;46.60;;;;;;4935944;29;20129;-49
2022/07/03 03:23:11;;;;;;;2.78;1.73;;;24.00;46.60;;;;;;4937212;28;20020;-50
2022/07/03 03:25:37;;;;;;;3.10;1.83;;;23.90;46.70;;;;;;4936961;29;20161;-50
2022/07/03 03:28:03;;;;;;;2.95;2.03;;;24.00;46.60;;;;;;4935402;29;20023;-51
2022/07/03 03:30:30;;;;;;;3.20;1.60;;;24.00;46.60;;;;;;4937211;29;20051;-49
2022/07/03 03:32:55;;;;;;;2.80;1.80;;;24.00;46.60;;;;;;4936883;29;20074;-47
2022/07/03 03:35:21;;;;;;;5.22;1.98;;;23.90;46.60;;;;;;4936418;29;20047;-47
2022/07/03 03:37:50;;;;;;;3.10;1.85;;;23.90;46.60;;;;;;4936750;29;20031;-48
2022/07/03 03:40:16;;;;;;;3.63;2.03;;;23.90;46.60;;;;;;4936072;29;20136;-48
2022/07/03 03:42:42;;;;;;;2.67;1.67;;;23.90;46.70;;;;;;4936657;28;20664;-47
2022/07/03 03:45:08;;;;;;;3.85;1.85;;;23.90;46.70;;;;;;4936705;29;20071;-48
2022/07/03 03:47:34;;;;;;;2.83;1.75;;;23.90;46.80;;;;;;4936732;29;20027;-48
2022/07/03 03:50:02;;;;;;;3.00;2.10;;;23.90;46.80;;;;;;4935736;29;20027;-47
2022/07/03 03:52:29;;;;;;;2.70;1.80;;;23.90;46.90;;;;;;4936026;28;20050;-47
2022/07/03 03:54:55;;;;;;;5.20;1.80;;;23.90;46.90;;;;;;4935233;28;20148;-48
2022/07/03 03:57:23;;;;;;;3.67;2.03;;;23.90;47.10;;;;;;4936828;28;20082;-47
2022/07/03 03:59:49;;;;;;;3.97;1.90;;;23.90;47.30;;;;;;4934734;29;20031;-47
2022/07/03 04:02:15;;;;;;;2.97;1.73;;;23.90;47.30;;;;;;4936239;29;20031;-47
2022/07/03 04:04:42;;;;;;;5.88;2.20;;;23.90;47.50;;;;;;4936757;29;20027;-47
2022/07/03 04:07:07;;;;;;;4.95;2.05;;;23.90;47.50;;;;;;4934516;29;20027;-47
2022/07/03 04:09:33;;;;;;;5.75;1.92;;;23.90;47.60;;;;;;4935537;29;20028;-47
2022/07/03 04:11:59;;;;;;;5.28;2.10;;;23.90;47.60;;;;;;4936222;29;20608;-47
2022/07/03 04:14:25;;;;;;;4.40;2.10;;;23.90;47.70;;;;;;4936296;29;20552;-47
2022/07/03 04:16:50;;;;;;;3.20;1.92;;;23.90;47.70;;;;;;4936384;29;20050;-47
2022/07/03 04:19:16;;;;;;;2.85;1.83;;;23.80;47.60;;;;;;4935197;29;20066;-48
2022/07/03 04:21:42;;;;;;;3.28;1.83;;;23.80;47.60;;;;;;4935203;29;20027;-47
2022/07/03 04:24:08;;;;;;;3.08;1.80;;;23.80;47.60;;;;;;4935957;29;20527;-48
2022/07/03 04:26:34;;;;;;;2.92;1.73;;;23.80;47.60;;;;;;4935671;28;20031;-48
2022/07/03 04:28:59;;;;;;;2.15;1.40;;;23.80;47.60;;;;;;4935794;29;20103;-47
2022/07/03 04:31:25;;;;;;;3.05;1.83;;;23.80;47.70;;;;;;4935953;29;20142;-48
2022/07/03 04:33:51;;;;;;;3.20;1.98;;;23.80;47.60;;;;;;4935541;29;20031;-48
2022/07/03 04:36:17;;;;;;;3.00;1.90;;;23.80;47.60;;;;;;4935983;29;20549;-48
2022/07/03 04:38:43;;;;;;;2.42;1.50;;;23.80;47.50;;;;;;4935159;29;20480;-48
2022/07/03 04:41:09;;;;;;;3.10;1.98;;;23.80;47.60;;;;;;4935814;28;20036;-47
2022/07/03 04:43:36;;;;;;;2.33;1.52;;;23.80;47.60;;;;;;4936032;29;20098;-48
2022/07/03 04:46:02;;;;;;;3.63;1.92;;;23.80;47.60;;;;;;4934198;29;20603;-47
2022/07/03 04:48:29;;;;;;;2.78;1.85;;;23.80;47.60;;;;;;4934853;29;20436;-48
2022/07/03 04:50:55;;;;;;;2.55;1.67;;;23.80;47.60;;;;;;4935159;29;20015;-47
2022/07/03 04:53:21;;;;;;;2.97;1.80;;;23.80;47.60;;;;;;4933872;29;20067;-47
2022/07/03 04:55:47;;;;;;;3.03;1.88;;;23.80;47.80;;;;;;4934099;29;20059;-47
2022/07/03 04:58:12;;;;;;;3.03;1.80;;;23.80;47.90;;;;;;4931882;29;20039;-47
2022/07/03 05:00:40;;;;;;;2.95;1.90;;;23.80;48.00;;;;;;4934208;29;20065;-48
2022/07/03 05:03:07;;;;;;;3.30;2.00;;;23.80;48.10;;;;;;4934533;29;20031;-48
2022/07/03 05:05:32;;;;;;;2.80;1.80;;;23.80;48.10;;;;;;4935102;28;20019;-47
2022/07/03 05:07:58;;;;;;;2.60;1.70;;;23.80;48.10;;;;;;4934945;28;20443;-47
2022/07/03 05:10:24;;;;;;;3.03;1.90;;;23.80;48.20;;;;;;4934014;28;20083;-47
2022/07/03 05:12:50;;;;;;;3.55;1.55;;;23.80;48.20;;;;;;4935500;29;20031;-48
2022/07/03 05:15:16;;;;;;;2.60;1.75;;;23.80;48.20;;;;;;4934948;29;20039;-48
2022/07/03 05:17:41;;;;;;;3.13;1.92;;;23.80;48.30;;;;;;4935208;29;20529;-48
2022/07/03 05:22:53;;;;;;;3.75;1.80;;;23.80;48.30;;;;;;4932465;29;20474;-47
2022/07/03 05:25:19;;;;;;;3.53;2.10;;;23.80;48.40;;;;;;4935244;29;20546;-48
2022/07/03 05:27:44;;;;;;;2.97;1.90;;;23.80;48.30;;;;;;4934986;29;20031;-48
2022/07/03 05:30:11;;;;;;;2.63;1.58;;;23.80;48.40;;;;;;4934441;29;20698;-47
2022/07/03 05:32:37;;;;;;;2.78;1.70;;;23.80;48.30;;;;;;4934881;29;20031;-47
2022/07/03 05:35:03;;;;;;;3.33;1.92;;;23.80;48.30;;;;;;4935129;29;20069;-48
2022/07/03 05:37:29;;;;;;;2.92;1.95;;;23.90;48.50;;;;;;4934908;28;20166;-48
2022/07/03 05:39:54;;;;;;;3.55;2.08;;;23.80;48.40;;;;;;4933533;29;20111;-47
2022/07/03 05:42:20;;;;;;;3.03;1.90;;;23.90;48.50;;;;;;4934634;29;20055;-47
2022/07/03 05:44:46;;;;;;;2.80;1.88;;;23.90;48.50;;;;;;4934823;29;20023;-47
2022/07/03 05:47:12;;;;;;;3.45;2.10;;;23.90;48.50;;;;;;4934883;29;20023;-47
2022/07/03 05:49:37;;;;;;;3.38;2.13;;;23.80;48.50;;;;;;4933597;29;20032;-47
2022/07/03 05:52:03;;;;;;;3.15;1.83;;;23.90;48.60;;;;;;4933976;28;20082;-47
2022/07/03 05:54:29;;;;;;;3.13;1.98;;;23.90;48.60;;;;;;4935365;29;20110;-48
2022/07/03 05:56:55;;;;;;;3.22;2.05;;;23.90;48.60;;;;;;4934216;29;20023;-48
2022/07/03 05:59:21;;;;;;;3.00;2.00;;;23.90;48.50;;;;;;4933977;29;20066;-47
2022/07/03 06:01:46;;;;;;;3.10;2.13;;;23.90;48.50;;;;;;4928734;29;20110;-47
2022/07/03 06:04:12;;;;;;;3.25;2.10;;;23.90;48.50;;;;;;4925493;29;20526;-47
2022/07/03 06:06:38;;;;;;;3.25;2.17;;;23.90;48.40;;;;;;4925728;29;20055;-47
2022/07/03 06:09:04;;;;;;;2.95;1.98;;;23.90;48.40;;;;;;4925147;29;20558;-47
2022/07/03 06:11:29;;;;;;;3.60;2.20;;;23.90;48.30;;;;;;4925741;29;20181;-48
2022/07/03 06:13:55;;;;;;;2.80;1.98;;;23.90;48.30;;;;;;4925406;29;20091;-48
2022/07/03 06:16:21;;;;;;;3.00;1.70;;;23.90;48.30;;;;;;4925155;29;20431;-47
2022/07/03 06:18:47;;;;;;;3.65;2.10;;;23.90;48.30;;;;;;4926310;29;20083;-48
2022/07/03 06:21:13;;;;;;;2.70;1.70;;;23.90;48.30;;;;;;4929185;29;20036;-47
2022/07/03 06:23:39;;;;;;;3.00;2.22;;;23.90;48.20;;;;;;4928870;29;20038;-48
2022/07/03 06:26:05;;;;;;;2.85;1.90;;;24.00;48.30;;;;;;4927574;29;20036;-46
2022/07/03 06:28:31;;;;;;;3.20;2.20;;;24.00;48.20;;;;;;4928887;29;20032;-48
2022/07/03 06:30:57;;;;;;;3.53;2.20;;;24.00;48.10;;;;;;4928727;29;20043;-47
2022/07/03 06:33:22;;;;;;;3.05;2.17;;;24.00;48.10;;;;;;4929144;29;20621;-47
2022/07/03 06:35:49;;;;;;;2.72;1.75;;;24.00;48.10;;;;;;4929142;29;20039;-47
2022/07/03 06:38:14;;;;;;;3.03;2.10;;;24.00;48.00;;;;;;4928745;29;20488;-47
2022/07/03 06:40:40;;;;;;;3.13;2.00;;;24.00;48.00;;;;;;4928614;29;20042;-47
2022/07/03 06:43:06;;;;;;;2.70;1.77;;;24.00;47.90;;;;;;4929048;29;20024;-47
2022/07/03 06:45:31;;;;;;;3.40;2.80;;;24.10;48.10;;;;;;4928797;29;20032;-48
2022/07/03 06:47:57;;;;;;;4.63;3.13;;;24.00;48.80;;;;;;4934190;29;20045;-48
2022/07/03 06:50:23;;;;;;;3.88;2.85;;;23.90;49.40;;;;;;4936825;29;20550;-48
2022/07/03 06:52:49;;;;;;;4.53;3.55;;;23.80;49.70;;;;;;4934801;29;20047;-48
2022/07/03 06:55:14;;;;;;;4.63;3.10;;;23.70;50.50;;;;;;4926071;29;20114;-48
2022/07/03 06:57:40;;;;;;;3.45;2.72;;;23.70;50.80;;;;;;4928017;29;20092;-51
2022/07/03 07:00:07;;;;;;;4.68;3.38;;;23.60;51.00;;;;;;4927303;29;20036;-50
2022/07/03 07:02:33;;;;;;;3.72;3.03;;;23.50;51.30;;;;;;4927845;29;20020;-51
2022/07/03 07:04:59;;;;;;;4.20;2.70;;;23.50;51.40;;;;;;4927867;29;20026;-49
2022/07/03 07:07:25;;;;;;;4.03;3.10;;;23.40;51.70;;;;;;4928196;29;20031;-53
2022/07/03 07:09:50;;;;;;;7.00;3.60;;;23.40;51.90;;;;;;4927438;29;20036;-52
2022/07/03 07:12:16;;;;;;;4.60;2.90;;;23.30;52.30;;;;;;4927358;29;20502;-50
2022/07/03 07:14:43;;;;;;;4.80;3.42;;;23.30;52.10;;;;;;4928342;29;20070;-50
2022/07/03 07:17:08;;;;;;;3.92;2.92;;;23.20;52.30;;;;;;4928140;29;20066;-50
2022/07/03 07:19:34;;;;;;;4.50;3.10;;;23.20;52.40;;;;;;4928049;29;20547;-49
2022/07/03 07:22:01;;;;;;;3.95;3.08;;;23.20;52.40;;;;;;4927637;29;20027;-48
2022/07/03 07:24:29;;;;;;;5.55;3.55;;;23.10;52.50;;;;;;4928001;29;20027;-50
2022/07/03 07:26:55;;;;;;;4.45;3.45;;;23.10;52.80;;;;;;4927072;29;20558;-50
2022/07/03 07:29:21;;;;;;;4.60;3.40;;;23.00;53.50;;;;;;4926302;29;20039;-49
2022/07/03 07:31:47;;;;;;;4.40;3.28;;;23.00;53.70;;;;;;4927127;29;20455;-51
2022/07/03 07:34:13;;;;;;;4.82;3.58;;;22.90;53.40;;;;;;4926690;29;20039;-50
2022/07/03 07:36:39;;;;;;;3.83;2.88;;;22.90;53.40;;;;;;4927348;29;20023;-49
2022/07/03 07:39:05;;;;;;;4.50;3.35;;;22.80;53.10;;;;;;4927075;29;20737;-49
2022/07/03 07:41:31;;;;;;;4.85;3.63;;;22.80;53.40;;;;;;4927943;29;20478;-50
2022/07/03 07:43:57;;;;;;;4.50;3.20;;;22.80;54.30;;;;;;4926650;29;20046;-50
2022/07/03 07:46:23;;;;;;;5.28;3.55;;;22.80;54.00;;;;;;4927068;29;20031;-50
2022/07/03 07:48:49;;;;;;;4.45;3.78;;;22.70;54.00;;;;;;4926747;29;20118;-50
2022/07/03 07:51:15;;;;;;;4.20;3.25;;;22.70;54.70;;;;;;4927012;29;20059;-49
2022/07/03 07:53:40;;;;;;;4.68;3.47;;;22.70;54.70;;;;;;4923912;29;20059;-51
2022/07/03 07:56:06;;;;;;;3.88;2.95;;;22.70;54.50;;;;;;4914626;29;20028;-46
2022/07/03 07:58:32;;;;;;;4.00;3.10;;;22.70;54.20;;;;;;4916537;29;20044;-46
2022/07/03 08:06:40;;;;;;;5.85;3.55;;;22.90;54.60;;;;;;4934114;29;20023;-46
2022/07/03 08:09:05;;;;;;;17.10;5.35;;;23.00;54.60;;;;;;4925907;29;20028;-47
2022/07/03 08:11:31;;;;;;;8.27;4.25;;;23.00;54.50;;;;;;4934159;29;20051;-47
2022/07/03 08:13:57;;;;;;;8.50;4.28;;;23.10;55.60;;;;;;4935375;29;20028;-47
2022/07/03 08:16:22;;;;;;;5.55;3.13;;;23.20;57.40;;;;;;4935733;29;20051;-47
2022/07/03 08:18:48;;;;;;;5.07;3.45;;;23.20;55.80;;;;;;4934685;29;20019;-47
2022/07/03 08:21:14;;;;;;;4.05;3.15;;;23.30;54.50;;;;;;4935046;29;20023;-47
2022/07/03 08:23:40;;;;;;;4.90;3.40;;;23.30;53.80;;;;;;4935483;29;20020;-47
2022/07/03 08:26:05;;;;;;;4.95;3.50;;;23.40;53.60;;;;;;4935313;29;20024;-47
2022/07/03 08:28:31;;;;;;;4.10;2.80;;;23.40;53.40;;;;;;4933914;29;20070;-47
2022/07/03 08:30:57;;;;;;;4.45;2.53;;;23.50;52.50;;;;;;4934269;29;20027;-47
2022/07/03 08:33:22;;;;;;;4.22;3.00;;;23.50;53.00;;;;;;4935576;29;20535;-47
2022/07/03 08:35:48;;;;;;;6.28;3.10;;;23.50;52.80;;;;;;4933713;29;20031;-47
2022/07/03 08:38:14;;;;;;;5.18;2.78;;;23.50;52.70;;;;;;4929117;29;20106;-47
2022/07/03 08:40:43;;;;;;;4.03;2.78;;;23.60;52.70;;;;;;4932020;28;20026;-48
2022/07/03 08:43:09;;;;;;;5.05;3.15;;;23.60;52.50;;;;;;4926430;28;20035;-48
2022/07/03 08:45:37;;;;;;;4.63;2.75;;;23.60;52.50;;;;;;4925670;29;20047;-48
2022/07/03 08:48:05;;;;;;;5.00;3.03;;;23.70;52.60;;;;;;4928628;29;20054;-48
2022/07/03 08:50:33;;;;;;;3.97;2.88;;;23.70;52.20;;;;;;4926017;29;20032;-49
2022/07/03 08:53:00;;;;;;;3.60;2.75;;;23.70;52.20;;;;;;4926120;29;20656;-48
2022/07/03 08:55:25;;;;;;;4.53;3.13;;;23.70;52.00;;;;;;4925857;29;20057;-49
2022/07/03 08:57:55;;;;;;;3.63;2.85;;;23.80;52.10;;;;;;4926146;29;20024;-48
2022/07/03 09:00:21;;;;;;;4.57;2.90;;;23.80;52.10;;;;;;4925323;29;20676;-48
2022/07/03 09:02:49;;;;;;;4.10;2.88;;;23.90;52.10;;;;;;4924754;29;20031;-48
2022/07/03 09:05:16;;;;;;;4.50;2.80;;;23.90;51.50;;;;;;4925484;29;20035;-48
2022/07/03 09:07:44;;;;;;;4.40;2.90;;;23.90;51.90;;;;;;4925732;29;20573;-49
2022/07/03 09:10:14;;;;;;;3.83;2.65;;;23.90;51.00;;;;;;4925530;29;20397;-50
2022/07/03 09:12:44;;;;;;;4.60;2.88;;;24.00;51.40;;;;;;4925372;29;20707;-49
2022/07/03 09:15:10;;;;;;;4.70;2.83;;;24.00;51.50;;;;;;4923484;29;20099;-48
2022/07/03 09:17:37;;;;;;;3.20;2.40;;;24.00;51.60;;;;;;4924928;29;20086;-47
2022/07/03 09:20:05;;;;;;;3.30;2.55;;;24.10;51.60;;;;;;4924091;29;20035;-49
2022/07/03 09:22:33;;;;;;;3.58;2.65;;;24.10;51.60;;;;;;4924576;29;20596;-48
2022/07/03 09:25:11;;;;;;;4.22;2.78;;;24.10;51.60;;;;;;4925036;29;20034;-48
2022/07/03 09:27:38;;;;;;;3.50;2.45;;;24.10;51.50;;;;;;4925190;29;20035;-49
2022/07/03 09:30:08;;;;;;;3.75;2.40;;;24.20;51.60;;;;;;4925178;29;20039;-48
2022/07/03 09:32:37;;;;;;;3.40;2.35;;;24.20;51.50;;;;;;4925235;29;20028;-48
2022/07/03 09:35:19;;;;;;;3.25;2.50;;;24.20;51.50;;;;;;4923943;29;20031;-47
2022/07/03 09:38:01;;;;;;;3.65;2.17;;;24.30;51.50;;;;;;4924068;29;20028;-48
2022/07/03 09:40:51;;;;;;;3.78;2.35;;;24.30;51.80;;;;;;4923244;29;20043;-48
2022/07/03 09:43:33;;;;;;;4.57;2.80;;;24.30;51.70;;;;;;4911156;29;20265;-48
2022/07/03 09:46:01;;;;;;;4.80;2.73;;;24.30;50.90;;;;;;4914861;29;20032;-48
2022/07/03 09:48:32;;;;;;;10.00;4.43;;;24.40;51.10;;;;;;4917595;29;20036;-50
2022/07/03 09:51:23;;;;;;;7.28;4.05;;;24.40;52.10;;;;;;4918364;29;20028;-49
2022/07/03 09:53:56;;;;;;;5.22;3.08;;;24.40;50.60;;;;;;4918399;29;20024;-48
2022/07/03 09:56:34;;;;;;;;;;;24.40;50.40;;;;;;4923745;29;20115;-49
2022/07/03 09:59:14;;;;;;;3.42;2.28;;;24.50;50.40;;;;;;4917189;29;20391;-48
2022/07/03 10:01:42;;;;;;;3.53;2.20;;;24.50;50.50;;;;;;4924943;29;20035;-49
2022/07/03 10:04:22;;;;;;;3.47;2.38;;;24.50;50.60;;;;;;4924845;29;20066;-48
2022/07/03 10:06:59;;;;;;;6.65;3.40;;;24.50;50.50;;;;;;4925544;29;20072;-48
2022/07/03 10:09:30;;;;;;;5.53;2.63;;;24.60;51.80;;;;;;4924313;29;20055;-48
2022/07/03 10:11:59;;;;;;;3.97;2.53;;;24.60;51.20;;;;;;4917030;29;20563;-50
2022/07/03 10:14:32;;;;;;;4.13;2.53;;;24.60;49.90;;;;;;4916710;29;20575;-49
2022/07/03 10:17:00;;;;;;;4.00;2.45;;;24.70;50.80;;;;;;4928472;29;20097;-48
2022/07/03 10:19:37;;;;;;;3.60;2.50;;;24.70;49.40;;;;;;4912543;29;20118;-48
2022/07/03 10:22:08;;;;;;;3.58;2.50;;;24.70;49.50;;;;;;4916181;29;20102;-47
2022/07/03 10:24:35;;;;;;;3.58;2.60;;;24.80;49.70;;;;;;4925115;29;20083;-52
2022/07/03 10:27:01;;;;;;;4.85;2.80;;;24.80;50.00;;;;;;4933586;29;20020;-49
2022/07/03 10:29:28;;;;;;;4.47;3.00;;;24.80;49.70;;;;;;4915336;28;20038;-49
2022/07/03 10:31:54;;;;;;;4.05;2.78;;;24.80;50.50;;;;;;4923438;29;20042;-47
2022/07/03 10:34:24;;;;;;;4.55;3.10;;;24.80;50.90;;;;;;4916850;29;20547;-48
2022/07/03 10:37:02;;;;;;;4.57;3.35;;;24.80;51.00;;;;;;4918490;29;20535;-47
2022/07/03 10:46:11;;;;;;;3.40;2.40;;;24.90;49.50;;;;;;4925386;29;20111;-49
2022/07/03 10:49:00;;;;;;;3.85;2.65;;;24.90;49.80;;;;;;4924698;29;20431;-48
2022/07/03 10:51:27;;;;;;;3.78;2.70;;;25.00;50.40;;;;;;4919891;29;20039;-48
2022/07/03 10:54:13;;;;;;;5.07;2.90;;;25.00;50.40;;;;;;4923669;29;20143;-48
2022/07/03 10:57:01;;;;;;;3.63;2.78;;;25.00;50.40;;;;;;4924875;29;20074;-48
2022/07/03 10:59:42;;;;;;;3.28;2.25;;;25.00;50.80;;;;;;4916517;29;20102;-47
2022/07/03 11:02:23;;;;;;;3.75;2.45;;;25.10;50.70;;;;;;4919969;29;20130;-47
2022/07/03 11:04:58;;;;;;;4.30;3.03;;;25.10;50.20;;;;;;4924528;29;20078;-49
2022/07/03 11:07:24;;;;;;;3.63;2.50;;;25.20;50.30;;;;;;4928019;29;20016;-47
2022/07/03 11:10:08;;;;;;;4.32;2.40;;;25.20;50.20;;;;;;4927872;29;20649;-47
2022/07/03 11:12:56;;;;;;;3.55;2.20;;;25.20;50.00;;;;;;4928276;29;20067;-48
2022/07/03 11:15:43;;;;;;;3.25;2.38;;;25.20;50.30;;;;;;4927553;29;20511;-49
2022/07/03 11:18:10;;;;;;;4.32;2.67;;;25.30;50.20;;;;;;4926936;29;20040;-47
2022/07/03 11:20:41;;;;;;;4.03;2.78;;;25.30;50.40;;;;;;4927098;29;20035;-48
2022/07/03 11:23:12;;;;;;;3.78;2.67;;;25.30;50.50;;;;;;4927268;29;20680;-48
2022/07/03 11:25:43;;;;;;;3.67;2.40;;;25.40;50.80;;;;;;4927293;29;20043;-48
2022/07/03 11:28:34;;;;;;;4.45;2.47;;;25.40;50.50;;;;;;4927384;29;20185;-47
2022/07/03 11:31:10;;;;;;;4.13;2.25;;;25.40;50.70;;;;;;4943292;29;20024;-50
2022/07/03 11:33:54;;;;;;;3.42;2.25;;;25.40;50.50;;;;;;4946777;28;20713;-49
2022/07/03 11:36:27;;;;;;;4.88;3.05;;;25.40;50.60;;;;;;4946672;29;20114;-49
2022/07/03 11:38:57;;;;;;;3.92;2.75;;;25.50;50.70;;;;;;4946267;28;20023;-50
2022/07/03 11:41:28;;;;;;;3.83;2.67;;;25.50;50.30;;;;;;4929953;28;20130;-48
2022/07/03 11:44:05;;;;;;;4.50;3.10;;;25.50;50.40;;;;;;4926853;29;20308;-49
2022/07/03 11:46:36;;;;;;;4.38;3.03;;;25.60;51.20;;;;;;4922446;29;20023;-48
2022/07/03 11:49:08;;;;;;;3.70;2.53;;;25.60;50.50;;;;;;4920318;29;20543;-49
2022/07/03 11:51:35;;;;;;;4.07;2.63;;;25.70;51.00;;;;;;4924629;29;20536;-49
2022/07/03 11:54:02;;;;;;;4.45;2.70;;;25.70;51.10;;;;;;4927170;29;20047;-50
2022/07/03 11:56:28;;;;;;;3.67;2.63;;;25.70;50.40;;;;;;4927411;29;20032;-49
2022/07/03 11:58:59;;;;;;;3.83;2.33;;;25.80;50.70;;;;;;4926862;29;20034;-49
2022/07/03 12:01:27;;;;;;;3.55;2.42;;;25.80;50.60;;;;;;4921200;29;20021;-49
2022/07/03 12:04:04;;;;;;;3.47;2.80;;;25.80;50.80;;;;;;4926734;29;20036;-49
2022/07/03 12:06:35;;;;;;;3.78;2.53;;;25.80;50.80;;;;;;4927615;29;20024;-50
2022/07/03 12:09:01;;;;;;;3.35;2.45;;;25.90;50.40;;;;;;4926683;29;20486;-49
2022/07/03 12:11:27;;;;;;;3.72;2.20;;;25.90;50.60;;;;;;4926517;29;20523;-49
2022/07/03 12:13:54;;;;;;;3.20;2.25;;;25.90;50.60;;;;;;4927624;29;20110;-50
2022/07/03 12:16:30;;;;;;;3.78;2.40;;;25.90;50.60;;;;;;4923000;29;20035;-49
2022/07/03 12:18:56;;;;;;;3.30;2.40;;;25.90;50.60;;;;;;4925206;29;20562;-49
2022/07/03 12:21:23;;;;;;;3.92;2.40;;;25.90;50.60;;;;;;4927287;29;20032;-50
2022/07/03 12:23:52;;;;;;;4.60;2.90;;;25.90;50.70;;;;;;4926920;29;20030;-50
2022/07/03 12:26:32;;;;;;;4.32;2.65;;;26.00;51.10;;;;;;4928096;29;20023;-50
2022/07/03 12:29:07;;;;;;;4.18;2.60;;;26.00;51.10;;;;;;4934993;29;20090;-49
2022/07/03 12:31:33;;;;;;;4.05;2.80;;;26.00;51.20;;;;;;4930112;29;20047;-50
2022/07/03 12:34:00;;;;;;;3.30;2.42;;;26.00;51.20;;;;;;4934842;28;20562;-50
2022/07/03 12:36:27;;;;;;;4.13;2.65;;;26.00;51.30;;;;;;4934923;29;20548;-49
2022/07/03 12:38:54;;;;;;;3.45;2.67;;;26.00;51.40;;;;;;4925914;29;20032;-49
2022/07/03 12:41:21;;;;;;;3.97;2.30;;;26.00;51.40;;;;;;4926405;29;20039;-49
2022/07/03 12:43:48;;;;;;;3.75;2.40;;;26.10;51.50;;;;;;4920083;29;20079;-49
2022/07/03 12:46:26;;;;;;;3.85;2.40;;;26.10;51.60;;;;;;4922629;29;20055;-49
2022/07/03 12:48:56;;;;;;;3.10;2.30;;;26.10;51.70;;;;;;4926215;29;20434;-50
2022/07/03 12:51:41;;;;;;;3.35;2.13;;;26.10;51.80;;;;;;4925835;29;20179;-50
2022/07/03 12:54:12;;;;;;;5.18;2.45;;;26.20;51.80;;;;;;4921369;29;20032;-47
2022/07/03 12:56:38;;;;;;;3.97;2.10;;;26.20;51.50;;;;;;4920585;29;20087;-46
2022/07/03 12:59:17;;;;;;;4.32;2.25;;;26.20;52.00;;;;;;4906744;29;20032;-49
2022/07/03 13:01:59;;;;;;;5.15;2.28;;;26.20;52.20;;;;;;4914098;29;20048;-48
2022/07/03 13:04:35;;;;;;;;;;;26.20;52.30;;;;;;4923732;29;20031;-49
2022/07/03 13:07:08;;;;;;;3.40;1.80;;;26.30;51.90;;;;;;4920582;29;19907;-48
2022/07/03 13:09:36;;;;;;;3.47;2.30;;;26.30;51.60;;;;;;4914115;29;20019;-48
2022/07/03 13:12:03;;;;;;;3.95;2.15;;;26.30;51.40;;;;;;4934849;29;20031;-49
2022/07/03 13:14:29;;;;;;;4.00;1.92;;;26.30;51.40;;;;;;4935306;29;20074;-49
2022/07/03 13:16:56;;;;;;;4.20;2.45;;;26.30;51.40;;;;;;4934809;29;20030;-49
2022/07/03 13:19:25;;;;;;;3.30;2.10;;;26.30;51.40;;;;;;4934108;28;20038;-48